Time;durP1;ratioP1;P1;durP2;ratioP2;P2;SDS_P1;SDS_P2;PMS_P1;PMS_P2;Temp;Humidity;BMP_temperature;BMP_pressure;BME280_temperature;BME280_humidity;BME280_pressure;Samples;Min_cycle;Max_cycle;Signal;HPM_P1;HPM_P2
2023/06/19 00:00:12;;;;;;;2.83;2.63;;;;;;;;;;5086674;28;20193;-79
2023/06/19 00:02:41;;;;;;;2.67;2.47;;;;;;;;;;5076726;28;20185;-79
2023/06/19 00:05:09;;;;;;;3.42;3.13;;;;;;;;;;5075223;28;20217;-78
2023/06/19 00:07:38;;;;;;;3.30;3.10;;;;;;;;;;5076070;28;20245;-78
2023/06/19 00:10:06;;;;;;;3.35;3.13;;;;;;;;;;5084118;28;20668;-79
2023/06/19 00:12:34;;;;;;;3.38;3.08;;;;;;;;;;5096122;28;20204;-78
2023/06/19 00:15:01;;;;;;;3.28;3.08;;;;;;;;;;5083708;28;20612;-79
2023/06/19 00:17:30;;;;;;;3.25;2.95;;;;;;;;;;5088891;28;20216;-78
2023/06/19 00:19:58;;;;;;;3.22;3.03;;;;;;;;;;5094644;28;20308;-79
2023/06/19 00:22:27;;;;;;;3.67;3.38;;;;;;;;;;5094927;28;20226;-79
2023/06/19 00:24:54;;;;;;;3.80;3.50;;;;;;;;;;5117610;22;20228;-80
2023/06/19 00:27:22;;;;;;;4.05;3.75;;;;;;;;;;5094665;28;20203;-79
2023/06/19 00:29:49;;;;;;;3.35;3.05;;;;;;;;;;5093212;28;20227;-79
2023/06/19 00:32:17;;;;;;;3.40;3.20;;;;;;;;;;5093748;28;20286;-79
2023/06/19 00:34:44;;;;;;;4.15;3.75;;;;;;;;;;5093059;28;20311;-79
2023/06/19 00:37:13;;;;;;;3.88;3.58;;;;;;;;;;5093712;28;20217;-79
2023/06/19 00:39:41;;;;;;;3.90;3.63;;;;;;;;;;5093518;28;20662;-79
2023/06/19 00:42:09;;;;;;;4.78;4.38;;;;;;;;;;5093340;28;20205;-79
2023/06/19 00:44:36;;;;;;;4.13;3.83;;;;;;;;;;5093298;28;20659;-79
2023/06/19 00:47:05;;;;;;;4.22;3.92;;;;;;;;;;5092840;28;20192;-79
2023/06/19 00:49:33;;;;;;;3.80;3.53;;;;;;;;;;5093174;28;20196;-79
2023/06/19 00:52:00;;;;;;;4.22;3.88;;;;;;;;;;5093047;28;20870;-79
2023/06/19 00:54:30;;;;;;;4.40;4.05;;;;;;;;;;5092978;28;20344;-79
2023/06/19 00:56:58;;;;;;;4.68;4.28;;;;;;;;;;5093458;28;20283;-79
2023/06/19 00:59:25;;;;;;;3.90;3.60;;;;;;;;;;5092975;28;20200;-79
2023/06/19 01:01:53;;;;;;;3.78;3.47;;;;;;;;;;5093229;28;20207;-80
2023/06/19 01:04:20;;;;;;;4.13;3.70;;;;;;;;;;5092796;28;20733;-79
2023/06/19 01:06:57;;;;;;;3.53;3.22;;;;;;;;;;5092823;28;20203;-79
2023/06/19 01:09:31;;;;;;;3.08;2.88;;;;;;;;;;5092818;28;20215;-80
2023/06/19 01:12:05;;;;;;;3.33;3.05;;;;;;;;;;5092669;28;20200;-79
2023/06/19 01:14:36;;;;;;;3.35;3.15;;;;;;;;;;5092630;28;20223;-80
2023/06/19 01:17:05;;;;;;;3.45;3.15;;;;;;;;;;5092507;28;20221;-80
2023/06/19 01:19:32;;;;;;;3.00;2.80;;;;;;;;;;5091977;28;20200;-79
2023/06/19 01:22:05;;;;;;;2.90;2.70;;;;;;;;;;5092566;28;20211;-80
2023/06/19 01:24:32;;;;;;;3.10;2.90;;;;;;;;;;5092229;28;20232;-80
2023/06/19 01:27:00;;;;;;;2.85;2.65;;;;;;;;;;5092166;28;20663;-80
2023/06/19 01:29:27;;;;;;;2.72;2.53;;;;;;;;;;5092000;28;20920;-80
2023/06/19 01:32:00;;;;;;;3.05;2.85;;;;;;;;;;5092120;28;20207;-80
2023/06/19 01:34:29;;;;;;;3.03;2.83;;;;;;;;;;5092636;28;20624;-80
2023/06/19 01:36:57;;;;;;;2.75;2.55;;;;;;;;;;5092172;28;20267;-80
2023/06/19 01:39:26;;;;;;;3.15;2.95;;;;;;;;;;5091987;28;20257;-80
2023/06/19 01:41:54;;;;;;;2.55;2.45;;;;;;;;;;5092495;28;20200;-80
2023/06/19 01:44:22;;;;;;;2.92;2.72;;;;;;;;;;5092225;28;20227;-80
2023/06/19 01:46:50;;;;;;;3.65;3.35;;;;;;;;;;5092176;28;20204;-80
2023/06/19 01:49:17;;;;;;;3.53;3.25;;;;;;;;;;5091695;28;20192;-79
2023/06/19 01:51:45;;;;;;;3.22;3.03;;;;;;;;;;5092542;28;20273;-80
2023/06/19 01:54:12;;;;;;;4.25;3.92;;;;;;;;;;5092142;28;20711;-79
2023/06/19 01:56:41;;;;;;;3.92;3.63;;;;;;;;;;5092385;28;20219;-79
2023/06/19 01:59:09;;;;;;;3.20;3.00;;;;;;;;;;5092169;28;20223;-80
2023/06/19 02:01:36;;;;;;;3.63;3.33;;;;;;;;;;5093692;28;20231;-79
2023/06/19 02:04:04;;;;;;;3.25;3.05;;;;;;;;;;5095480;28;20565;-79
2023/06/19 02:06:32;;;;;;;2.65;2.50;;;;;;;;;;5096147;28;20582;-79
2023/06/19 02:08:59;;;;;;;2.58;2.40;;;;;;;;;;5094476;28;20652;-80
2023/06/19 02:11:27;;;;;;;2.70;2.50;;;;;;;;;;5096315;28;20204;-80
2023/06/19 02:13:55;;;;;;;3.40;3.10;;;;;;;;;;5096454;28;20196;-80
2023/06/19 02:16:23;;;;;;;3.03;2.83;;;;;;;;;;5095487;28;20196;-80
2023/06/19 02:18:51;;;;;;;3.42;3.13;;;;;;;;;;5095788;28;20226;-80
2023/06/19 02:21:18;;;;;;;3.65;2.72;;;;;;;;;;5097152;28;20442;-80
2023/06/19 02:23:45;;;;;;;2.90;2.70;;;;;;;;;;5096431;28;20206;-80
2023/06/19 02:26:13;;;;;;;2.53;2.33;;;;;;;;;;5096116;28;20801;-80
2023/06/19 02:28:40;;;;;;;2.80;2.60;;;;;;;;;;5096030;28;20288;-80
2023/06/19 02:31:09;;;;;;;2.50;2.40;;;;;;;;;;5095677;28;20664;-80
2023/06/19 02:33:36;;;;;;;2.95;2.75;;;;;;;;;;5094653;28;20680;-80
2023/06/19 02:36:05;;;;;;;2.90;2.70;;;;;;;;;;5095915;28;20231;-80
2023/06/19 02:38:32;;;;;;;3.10;2.88;;;;;;;;;;5095718;28;20219;-80
2023/06/19 02:41:01;;;;;;;3.30;3.10;;;;;;;;;;5095850;28;20292;-79
2023/06/19 02:43:28;;;;;;;3.58;3.28;;;;;;;;;;5092680;28;20193;-79
2023/06/19 02:45:56;;;;;;;3.30;3.10;;;;;;;;;;5082699;28;20226;-80
2023/06/19 02:48:24;;;;;;;3.50;3.22;;;;;;;;;;5095542;28;20204;-80
2023/06/19 02:50:52;;;;;;;3.47;3.17;;;;;;;;;;5095135;28;20204;-80
2023/06/19 02:53:19;;;;;;;3.10;2.90;;;;;;;;;;5095733;28;20207;-80
2023/06/19 02:55:47;;;;;;;3.35;3.13;;;;;;;;;;5094787;28;20220;-80
2023/06/19 02:58:14;;;;;;;3.47;3.17;;;;;;;;;;5094759;28;20224;-80
2023/06/19 03:00:41;;;;;;;3.40;3.20;;;;;;;;;;5095603;28;20200;-79
2023/06/19 03:03:09;;;;;;;2.88;2.67;;;;;;;;;;5095358;28;20302;-80
2023/06/19 03:05:38;;;;;;;3.30;3.00;;;;;;;;;;5095305;28;20222;-80
2023/06/19 03:08:05;;;;;;;3.30;3.10;;;;;;;;;;5094727;28;20203;-79
2023/06/19 03:10:33;;;;;;;2.90;2.70;;;;;;;;;;5094803;28;20206;-80
2023/06/19 03:13:01;;;;;;;2.92;2.72;;;;;;;;;;5093651;28;20212;-80
2023/06/19 03:15:28;;;;;;;2.58;2.38;;;;;;;;;;5095106;28;20220;-80
2023/06/19 03:17:55;;;;;;;3.10;2.90;;;;;;;;;;5093901;28;20203;-80
2023/06/19 03:20:23;;;;;;;3.00;2.80;;;;;;;;;;5094777;28;20210;-79
2023/06/19 03:22:52;;;;;;;2.55;2.38;;;;;;;;;;5093795;28;20206;-80
2023/06/19 03:25:20;;;;;;;3.00;2.80;;;;;;;;;;5093997;28;20282;-80
2023/06/19 03:27:48;;;;;;;2.88;2.67;;;;;;;;;;5093790;28;20215;-80
2023/06/19 03:30:18;;;;;;;3.08;2.88;;;;;;;;;;5093940;28;20690;-80
2023/06/19 03:32:45;;;;;;;3.38;3.10;;;;;;;;;;5094573;28;20197;-80
2023/06/19 03:35:13;;;;;;;3.53;3.33;;;;;;;;;;5094038;28;20213;-80
2023/06/19 03:37:40;;;;;;;3.05;2.85;;;;;;;;;;5094016;28;20210;-80
2023/06/19 03:40:13;;;;;;;2.70;2.50;;;;;;;;;;5093802;28;20596;-79
2023/06/19 03:42:41;;;;;;;3.00;2.80;;;;;;;;;;5094531;28;20204;-80
2023/06/19 03:45:09;;;;;;;3.70;3.30;;;;;;;;;;5094059;28;20857;-80
2023/06/19 03:47:37;;;;;;;3.35;3.05;;;;;;;;;;5093813;28;20200;-80
2023/06/19 03:50:09;;;;;;;3.08;2.88;;;;;;;;;;5093509;28;20751;-80
2023/06/19 03:52:37;;;;;;;3.15;2.95;;;;;;;;;;5093981;28;20757;-79
2023/06/19 03:55:06;;;;;;;3.15;2.95;;;;;;;;;;5093931;28;20220;-80
2023/06/19 03:57:34;;;;;;;2.75;2.55;;;;;;;;;;5093516;28;20196;-80
2023/06/19 04:00:03;;;;;;;3.00;2.80;;;;;;;;;;5093381;28;20230;-80
2023/06/19 04:02:31;;;;;;;3.17;2.97;;;;;;;;;;5094312;28;20680;-80
2023/06/19 04:04:58;;;;;;;2.80;2.60;;;;;;;;;;5093738;28;20220;-79
2023/06/19 04:07:25;;;;;;;2.92;2.72;;;;;;;;;;5093830;28;20747;-79
2023/06/19 04:09:53;;;;;;;3.60;3.30;;;;;;;;;;5093722;28;20665;-79
2023/06/19 04:12:20;;;;;;;3.00;2.80;;;;;;;;;;5093503;28;20763;-80
2023/06/19 04:14:49;;;;;;;3.55;3.28;;;;;;;;;;5093163;28;20224;-79
2023/06/19 04:17:17;;;;;;;3.60;3.30;;;;;;;;;;5093350;28;20575;-79
2023/06/19 04:19:44;;;;;;;2.90;2.70;;;;;;;;;;5092852;28;20224;-80
2023/06/19 04:22:11;;;;;;;2.90;2.70;;;;;;;;;;5092646;28;20200;-79
2023/06/19 04:24:39;;;;;;;2.75;2.55;;;;;;;;;;5092532;28;20224;-80
2023/06/19 04:27:08;;;;;;;2.65;2.45;;;;;;;;;;5093026;28;20206;-80
2023/06/19 04:29:35;;;;;;;3.20;2.90;;;;;;;;;;5093057;28;20207;-79
2023/06/19 04:32:11;;;;;;;2.90;2.70;;;;;;;;;;5093364;28;20205;-79
2023/06/19 04:34:38;;;;;;;3.13;2.85;;;;;;;;;;5093444;28;20223;-80
2023/06/19 04:37:07;;;;;;;3.05;2.85;;;;;;;;;;5093061;28;20227;-80
2023/06/19 04:39:35;;;;;;;3.15;2.95;;;;;;;;;;5093177;28;20228;-79
2023/06/19 04:42:02;;;;;;;3.85;3.40;;;;;;;;;;5092706;28;20196;-80
2023/06/19 04:44:33;;;;;;;3.15;2.95;;;;;;;;;;5092514;28;20231;-79
2023/06/19 04:47:01;;;;;;;3.08;2.78;;;;;;;;;;5093445;28;20207;-80
2023/06/19 04:49:31;;;;;;;2.97;2.72;;;;;;;;;;5092552;28;20192;-79
2023/06/19 04:51:58;;;;;;;3.08;2.88;;;;;;;;;;5092904;28;20685;-80
2023/06/19 04:54:26;;;;;;;3.00;2.80;;;;;;;;;;5093168;28;20220;-80
2023/06/19 04:56:54;;;;;;;3.13;2.92;;;;;;;;;;5092553;28;20201;-79
2023/06/19 04:59:21;;;;;;;3.40;3.20;;;;;;;;;;5092526;28;20695;-80
2023/06/19 05:01:49;;;;;;;3.30;3.00;;;;;;;;;;5092828;28;20565;-79
2023/06/19 05:04:16;;;;;;;3.80;3.50;;;;;;;;;;5093149;28;20224;-79
2023/06/19 05:06:45;;;;;;;3.70;3.40;;;;;;;;;;5092861;28;20686;-79
2023/06/19 05:09:12;;;;;;;3.60;3.33;;;;;;;;;;5093789;28;20200;-79
2023/06/19 05:11:40;;;;;;;3.42;3.22;;;;;;;;;;5095867;28;20582;-76
2023/06/19 05:14:07;;;;;;;3.50;3.25;;;;;;;;;;5093076;28;20549;-76
2023/06/19 05:16:35;;;;;;;3.88;3.58;;;;;;;;;;5093219;28;20576;-76
2023/06/19 05:19:02;;;;;;;2.83;2.63;;;;;;;;;;5092749;28;20207;-76
2023/06/19 05:21:30;;;;;;;3.38;3.17;;;;;;;;;;5093423;28;20200;-76
2023/06/19 05:23:59;;;;;;;2.53;2.33;;;;;;;;;;5092329;28;20196;-76
2023/06/19 05:26:26;;;;;;;3.08;2.88;;;;;;;;;;5092503;28;20204;-76
2023/06/19 05:28:54;;;;;;;2.88;2.67;;;;;;;;;;5092943;28;20261;-76
2023/06/19 05:31:21;;;;;;;3.95;3.65;;;;;;;;;;5092428;28;20224;-80
2023/06/19 05:33:49;;;;;;;3.13;2.92;;;;;;;;;;5091253;28;20211;-76
2023/06/19 05:36:16;;;;;;;3.75;3.45;;;;;;;;;;5083354;28;20206;-76
2023/06/19 05:38:43;;;;;;;3.00;2.70;;;;;;;;;;5095204;28;20648;-76
2023/06/19 05:41:17;;;;;;;3.60;3.40;;;;;;;;;;5096133;28;20188;-77
2023/06/19 05:43:44;;;;;;;5.00;4.60;;;;;;;;;;5096536;28;20204;-76
2023/06/19 05:46:11;;;;;;;3.80;3.50;;;;;;;;;;5096445;28;20228;-76
2023/06/19 05:48:39;;;;;;;3.95;3.65;;;;;;;;;;5096337;28;20199;-76
2023/06/19 05:51:06;;;;;;;4.25;3.95;;;;;;;;;;5095528;28;20249;-76
2023/06/19 05:53:34;;;;;;;5.10;4.70;;;;;;;;;;5095503;28;20200;-76
2023/06/19 05:56:01;;;;;;;3.97;3.67;;;;;;;;;;5095821;28;20220;-76
2023/06/19 05:58:30;;;;;;;3.95;3.65;;;;;;;;;;5095846;28;20204;-76
2023/06/19 06:00:58;;;;;;;4.13;3.83;;;;;;;;;;5095828;28;20199;-76
2023/06/19 06:03:26;;;;;;;4.40;4.10;;;;;;;;;;5096449;28;20215;-76
2023/06/19 06:06:02;;;;;;;4.78;4.38;;;;;;;;;;5096204;28;20269;-76
2023/06/19 06:08:29;;;;;;;4.78;4.25;;;;;;;;;;5094676;28;20200;-76
2023/06/19 06:10:57;;;;;;;4.60;4.30;;;;;;;;;;5104387;28;20228;-77
2023/06/19 06:13:24;;;;;;;4.88;4.47;;;;;;;;;;5096271;28;20579;-76
2023/06/19 06:15:53;;;;;;;4.35;4.05;;;;;;;;;;5096554;28;20224;-77
2023/06/19 06:18:21;;;;;;;4.15;3.75;;;;;;;;;;5096134;28;20200;-77
2023/06/19 06:20:49;;;;;;;4.10;3.80;;;;;;;;;;5096354;28;20643;-77
2023/06/19 06:23:16;;;;;;;3.58;3.30;;;;;;;;;;5095495;28;20210;-77
2023/06/19 06:25:45;;;;;;;4.30;3.92;;;;;;;;;;5095378;28;20254;-77
2023/06/19 06:28:12;;;;;;;5.28;4.88;;;;;;;;;;5096124;28;20583;-76
2023/06/19 06:30:40;;;;;;;4.75;4.30;;;;;;;;;;5095758;28;20675;-77
2023/06/19 06:33:09;;;;;;;5.90;5.30;;;;;;;;;;5095486;28;20288;-78
2023/06/19 06:35:36;;;;;;;4.93;4.53;;;;;;;;;;5095157;28;20246;-76
2023/06/19 06:38:04;;;;;;;5.38;4.97;;;;;;;;;;5094658;28;20211;-77
2023/06/19 06:40:31;;;;;;;5.13;4.72;;;;;;;;;;5095377;28;20206;-77
2023/06/19 06:42:59;;;;;;;5.70;5.20;;;;;;;;;;5095383;28;20655;-77
2023/06/19 06:45:26;;;;;;;5.10;4.68;;;;;;;;;;5095370;28;20228;-77
2023/06/19 06:47:54;;;;;;;4.43;4.13;;;;;;;;;;5094599;28;20268;-77
2023/06/19 06:50:22;;;;;;;4.70;4.30;;;;;;;;;;5094984;28;20224;-76
2023/06/19 06:52:50;;;;;;;6.38;5.78;;;;;;;;;;5091998;28;20204;-77
2023/06/19 06:55:17;;;;;;;5.88;5.35;;;;;;;;;;5092344;28;20228;-77
2023/06/19 06:57:45;;;;;;;6.13;5.60;;;;;;;;;;5094781;28;20208;-76
2023/06/19 07:00:14;;;;;;;5.55;5.15;;;;;;;;;;5094453;28;20210;-76
2023/06/19 07:02:41;;;;;;;5.40;5.00;;;;;;;;;;5094885;28;20204;-77
2023/06/19 07:05:10;;;;;;;6.30;5.70;;;;;;;;;;5094183;28;20303;-77
2023/06/19 07:07:39;;;;;;;6.82;6.22;;;;;;;;;;5094489;28;20205;-76
2023/06/19 07:10:08;;;;;;;5.18;4.75;;;;;;;;;;5094793;28;20299;-77
2023/06/19 07:12:36;;;;;;;5.30;4.80;;;;;;;;;;5095376;28;20710;-78
2023/06/19 07:15:03;;;;;;;5.30;4.85;;;;;;;;;;5094388;28;20224;-77
2023/06/19 07:17:31;;;;;;;5.20;4.70;;;;;;;;;;5094519;28;20619;-77
2023/06/19 07:19:58;;;;;;;5.55;5.13;;;;;;;;;;5093728;28;20197;-77
2023/06/19 07:22:26;;;;;;;5.65;5.15;;;;;;;;;;5093588;28;20279;-77
2023/06/19 07:24:54;;;;;;;6.57;5.80;;;;;;;;;;5092548;28;20227;-77
2023/06/19 07:27:22;;;;;;;5.25;4.85;;;;;;;;;;5092080;28;20200;-79
2023/06/19 07:29:49;;;;;;;5.65;5.25;;;;;;;;;;5092706;28;20215;-77
2023/06/19 07:32:17;;;;;;;5.00;4.60;;;;;;;;;;5092276;28;20228;-78
2023/06/19 07:34:44;;;;;;;5.32;4.90;;;;;;;;;;5092066;28;20220;-78
2023/06/19 07:37:17;;;;;;;4.55;4.25;;;;;;;;;;5092847;28;20582;-77
2023/06/19 07:39:44;;;;;;;5.72;5.22;;;;;;;;;;5094322;28;20201;-78
2023/06/19 07:42:15;;;;;;;5.07;4.57;;;;;;;;;;5094844;28;20192;-77
2023/06/19 07:44:42;;;;;;;5.28;4.88;;;;;;;;;;5094443;28;20224;-77
2023/06/19 07:47:10;;;;;;;4.90;4.50;;;;;;;;;;5094048;28;20197;-77
2023/06/19 07:49:38;;;;;;;5.20;4.70;;;;;;;;;;5094538;28;20204;-78
2023/06/19 07:52:09;;;;;;;5.05;4.65;;;;;;;;;;5094650;28;20220;-78
2023/06/19 07:54:36;;;;;;;3.70;3.47;;;;;;;;;;5094671;28;20220;-78
2023/06/19 07:57:05;;;;;;;3.80;3.58;;;;;;;;;;5094370;28;20237;-78
2023/06/19 07:59:33;;;;;;;4.15;3.78;;;;;;;;;;5093142;28;20196;-78
2023/06/19 08:02:01;;;;;;;4.15;3.85;;;;;;;;;;5093726;28;20566;-78
2023/06/19 08:04:28;;;;;;;4.47;4.07;;;;;;;;;;5093710;28;20228;-78
2023/06/19 08:06:56;;;;;;;4.13;3.83;;;;;;;;;;5093787;28;20226;-78
2023/06/19 08:09:23;;;;;;;3.72;3.45;;;;;;;;;;5093599;28;20210;-78
2023/06/19 08:11:50;;;;;;;3.53;3.30;;;;;;;;;;5093746;28;20228;-78
2023/06/19 08:14:18;;;;;;;3.95;3.70;;;;;;;;;;5093765;28;20224;-77
2023/06/19 08:16:47;;;;;;;3.85;3.55;;;;;;;;;;5093848;28;20735;-78
2023/06/19 08:19:14;;;;;;;3.42;3.13;;;;;;;;;;5093600;28;20295;-77
2023/06/19 08:21:42;;;;;;;3.53;3.33;;;;;;;;;;5094084;28;20222;-78
2023/06/19 08:24:09;;;;;;;4.47;4.18;;;;;;;;;;5093105;28;20224;-78
2023/06/19 08:26:36;;;;;;;4.13;3.83;;;;;;;;;;5093736;28;20562;-77
2023/06/19 08:29:04;;;;;;;5.03;4.53;;;;;;;;;;5093267;28;20200;-78
2023/06/19 08:31:33;;;;;;;4.05;3.75;;;;;;;;;;5092990;28;20219;-77
2023/06/19 08:34:06;;;;;;;3.90;3.60;;;;;;;;;;5093235;28;20212;-77
2023/06/19 08:36:34;;;;;;;4.25;3.95;;;;;;;;;;5093590;28;20295;-78
2023/06/19 08:39:02;;;;;;;4.40;4.10;;;;;;;;;;5093053;28;20290;-78
2023/06/19 08:41:29;;;;;;;4.30;4.00;;;;;;;;;;5093367;28;20204;-78
2023/06/19 08:43:57;;;;;;;3.92;3.67;;;;;;;;;;5092941;28;20216;-78
2023/06/19 08:46:25;;;;;;;3.80;3.50;;;;;;;;;;5093085;28;20204;-78
2023/06/19 08:48:55;;;;;;;4.90;4.53;;;;;;;;;;5093015;28;20204;-78
2023/06/19 08:51:26;;;;;;;5.35;4.95;;;;;;;;;;5092754;28;20200;-78
2023/06/19 08:54:00;;;;;;;5.60;5.15;;;;;;;;;;5092835;28;20196;-77
2023/06/19 08:56:27;;;;;;;4.78;4.13;;;;;;;;;;5092989;28;20197;-78
2023/06/19 08:58:55;;;;;;;4.95;4.63;;;;;;;;;;5092604;28;20736;-78
2023/06/19 09:01:26;;;;;;;3.80;3.55;;;;;;;;;;5092970;28;20200;-78
2023/06/19 09:03:55;;;;;;;4.60;4.30;;;;;;;;;;5092782;28;20230;-78
2023/06/19 09:06:24;;;;;;;4.20;3.90;;;;;;;;;;5093742;28;20200;-77
2023/06/19 09:09:00;;;;;;;3.65;3.35;;;;;;;;;;5092429;28;20577;-82
2023/06/19 09:11:27;;;;;;;4.88;4.18;;;;;;;;;;5092665;28;20200;-78
2023/06/19 09:13:58;;;;;;;3.90;3.60;;;;;;;;;;5092340;28;20210;-77
2023/06/19 09:16:39;;;;;;;4.32;4.03;;;;;;;;;;5092761;28;20211;-79
2023/06/19 09:19:07;;;;;;;3.92;3.60;;;;;;;;;;5092811;28;20212;-78
2023/06/19 09:21:38;;;;;;;4.47;4.07;;;;;;;;;;5092642;28;20291;-78
2023/06/19 09:24:07;;;;;;;3.80;3.60;;;;;;;;;;5092765;28;20196;-78
2023/06/19 09:26:35;;;;;;;3.47;3.28;;;;;;;;;;5092975;28;20204;-78
2023/06/19 09:29:13;;;;;;;4.07;3.78;;;;;;;;;;5092593;28;20622;-78
2023/06/19 09:31:41;;;;;;;3.55;3.25;;;;;;;;;;5093217;28;20243;-77
2023/06/19 09:34:09;;;;;;;4.22;3.92;;;;;;;;;;5094437;28;20228;-78
2023/06/19 09:36:38;;;;;;;3.60;3.40;;;;;;;;;;5092855;28;20198;-78
2023/06/19 09:39:05;;;;;;;3.75;3.55;;;;;;;;;;5092494;28;20578;-79
2023/06/19 09:41:33;;;;;;;4.28;3.97;;;;;;;;;;5092837;28;20210;-79
2023/06/19 09:44:01;;;;;;;3.97;3.67;;;;;;;;;;5093287;28;20290;-78
2023/06/19 09:46:32;;;;;;;3.72;3.42;;;;;;;;;;5093660;28;20196;-78
2023/06/19 09:49:03;;;;;;;4.55;4.25;;;;;;;;;;5093411;28;20200;-79
2023/06/19 09:51:34;;;;;;;4.07;3.78;;;;;;;;;;5092796;28;20208;-79
2023/06/19 09:54:04;;;;;;;3.28;3.08;;;;;;;;;;5092866;28;20242;-79
2023/06/19 09:56:31;;;;;;;3.35;3.15;;;;;;;;;;5093159;28;20295;-78
2023/06/19 09:59:01;;;;;;;3.78;3.50;;;;;;;;;;5092621;28;20200;-79
2023/06/19 10:01:30;;;;;;;3.50;3.30;;;;;;;;;;5092578;28;20204;-78
2023/06/19 10:04:06;;;;;;;3.33;3.10;;;;;;;;;;5092878;28;20196;-78
2023/06/19 10:06:34;;;;;;;4.13;3.72;;;;;;;;;;5093183;28;20670;-78
2023/06/19 10:09:10;;;;;;;3.22;3.03;;;;;;;;;;5092531;28;20204;-78
2023/06/19 10:11:52;;;;;;;4.97;4.60;;;;;;;;;;5092782;28;20207;-79
2023/06/19 10:14:20;;;;;;;3.80;3.50;;;;;;;;;;5092438;28;20273;-79
2023/06/19 10:16:47;;;;;;;3.83;3.53;;;;;;;;;;5079812;28;20197;-78
2023/06/19 10:19:16;;;;;;;3.35;3.15;;;;;;;;;;5072504;28;20197;-79
2023/06/19 10:21:49;;;;;;;3.70;3.50;;;;;;;;;;5072710;28;20201;-79
2023/06/19 10:24:19;;;;;;;2.95;2.75;;;;;;;;;;5075710;28;20220;-79
2023/06/19 10:26:58;;;;;;;3.70;3.50;;;;;;;;;;5090271;28;20196;-79
2023/06/19 10:29:27;;;;;;;3.22;2.92;;;;;;;;;;5096250;28;20254;-78
2023/06/19 10:31:56;;;;;;;3.60;3.30;;;;;;;;;;5096341;28;20573;-78
2023/06/19 10:34:33;;;;;;;2.60;2.50;;;;;;;;;;5099851;28;20261;-78
2023/06/19 10:37:01;;;;;;;3.42;3.22;;;;;;;;;;5100874;28;20222;-79
2023/06/19 10:39:29;;;;;;;2.92;2.72;;;;;;;;;;5101335;28;20295;-78
2023/06/19 10:41:57;;;;;;;3.10;2.90;;;;;;;;;;5101301;28;20218;-79
2023/06/19 10:44:26;;;;;;;2.88;2.67;;;;;;;;;;5101698;28;20216;-79
2023/06/19 10:46:54;;;;;;;3.58;3.28;;;;;;;;;;5105407;28;20203;-79
2023/06/19 10:49:22;;;;;;;3.00;2.83;;;;;;;;;;5105598;28;20207;-78
2023/06/19 10:51:50;;;;;;;2.83;2.70;;;;;;;;;;5104358;28;20192;-78
2023/06/19 10:54:18;;;;;;;3.88;3.58;;;;;;;;;;5105374;28;20891;-78
2023/06/19 10:56:48;;;;;;;3.50;3.30;;;;;;;;;;5103684;28;20196;-78
2023/06/19 10:59:16;;;;;;;3.55;3.28;;;;;;;;;;5100041;28;20209;-78
2023/06/19 11:01:45;;;;;;;3.42;3.22;;;;;;;;;;5103443;28;20200;-79
2023/06/19 11:04:16;;;;;;;3.90;3.60;;;;;;;;;;5103232;28;20212;-79
2023/06/19 11:06:45;;;;;;;3.10;2.90;;;;;;;;;;5104838;28;20203;-79
2023/06/19 11:09:14;;;;;;;3.22;3.03;;;;;;;;;;5104762;28;20210;-79
2023/06/19 11:11:44;;;;;;;3.90;3.53;;;;;;;;;;5102089;28;20204;-79
2023/06/19 11:14:15;;;;;;;2.90;2.70;;;;;;;;;;5102378;28;20232;-80
2023/06/19 11:16:44;;;;;;;3.67;3.42;;;;;;;;;;5103727;28;20279;-79
2023/06/19 11:19:17;;;;;;;3.75;3.45;;;;;;;;;;5101014;28;20252;-79
2023/06/19 11:21:48;;;;;;;2.88;2.67;;;;;;;;;;5103652;28;20210;-79
2023/06/19 11:24:16;;;;;;;3.30;3.10;;;;;;;;;;5103280;28;20224;-78
2023/06/19 11:26:49;;;;;;;2.97;2.78;;;;;;;;;;5104664;28;20278;-78
2023/06/19 11:29:20;;;;;;;2.92;2.72;;;;;;;;;;5101906;28;20204;-79
2023/06/19 11:31:48;;;;;;;3.22;3.03;;;;;;;;;;5104683;28;20200;-79
2023/06/19 11:34:16;;;;;;;3.22;3.03;;;;;;;;;;5103619;28;20228;-80
2023/06/19 11:36:45;;;;;;;3.05;2.85;;;;;;;;;;5102686;28;20204;-78
2023/06/19 11:39:15;;;;;;;2.83;2.63;;;;;;;;;;5101429;28;20196;-78
2023/06/19 11:41:44;;;;;;;3.25;3.05;;;;;;;;;;5101448;28;20204;-78
2023/06/19 11:44:11;;;;;;;3.90;3.60;;;;;;;;;;5100888;28;20234;-79
2023/06/19 11:46:40;;;;;;;3.38;3.15;;;;;;;;;;5101597;28;20291;-79
2023/06/19 11:49:13;;;;;;;3.72;3.42;;;;;;;;;;5098964;28;20204;-78
2023/06/19 11:51:41;;;;;;;3.42;3.22;;;;;;;;;;5100936;28;20229;-79
2023/06/19 11:54:11;;;;;;;3.65;3.38;;;;;;;;;;5100100;28;20224;-78
2023/06/19 11:56:39;;;;;;;3.08;2.88;;;;;;;;;;5098324;28;20208;-78
2023/06/19 11:59:07;;;;;;;2.95;2.75;;;;;;;;;;5098819;28;20211;-79
2023/06/19 12:01:35;;;;;;;3.63;3.33;;;;;;;;;;5097715;28;20216;-78
2023/06/19 12:04:04;;;;;;;3.78;3.47;;;;;;;;;;5099483;28;20199;-78
2023/06/19 12:06:32;;;;;;;2.83;2.67;;;;;;;;;;5098737;28;20264;-78
2023/06/19 12:09:00;;;;;;;2.60;2.50;;;;;;;;;;5101092;28;20203;-79
2023/06/19 12:11:27;;;;;;;3.17;2.97;;;;;;;;;;5103451;28;20208;-79
2023/06/19 12:13:55;;;;;;;2.35;2.15;;;;;;;;;;5105698;28;20227;-78
2023/06/19 12:16:23;;;;;;;2.45;2.10;;;;;;;;;;5105763;28;20199;-79
2023/06/19 12:18:50;;;;;;;2.70;2.55;;;;;;;;;;5102870;28;20200;-79
2023/06/19 12:21:19;;;;;;;2.70;2.50;;;;;;;;;;5105747;28;20196;-78
2023/06/19 12:23:46;;;;;;;2.45;2.35;;;;;;;;;;5103134;28;20196;-79
2023/06/19 12:26:14;;;;;;;3.22;3.03;;;;;;;;;;5102793;28;20226;-78
2023/06/19 12:28:41;;;;;;;3.28;3.08;;;;;;;;;;5105347;28;20202;-79
2023/06/19 12:31:09;;;;;;;3.75;3.53;;;;;;;;;;5105094;28;20272;-79
2023/06/19 12:33:38;;;;;;;2.92;2.72;;;;;;;;;;5107813;28;20200;-79
2023/06/19 12:36:07;;;;;;;2.75;2.55;;;;;;;;;;5105037;28;20216;-79
2023/06/19 12:38:38;;;;;;;2.85;2.65;;;;;;;;;;5105271;28;20215;-78
2023/06/19 12:41:05;;;;;;;2.80;2.60;;;;;;;;;;5104429;28;20188;-79
2023/06/19 12:43:33;;;;;;;2.80;2.60;;;;;;;;;;5104189;28;20227;-79
2023/06/19 12:46:01;;;;;;;3.03;2.83;;;;;;;;;;5103708;28;20283;-78
2023/06/19 12:48:29;;;;;;;3.10;2.90;;;;;;;;;;5104435;28;20200;-78
2023/06/19 12:50:56;;;;;;;3.58;3.28;;;;;;;;;;5107367;28;20271;-79
2023/06/19 12:53:26;;;;;;;3.00;2.80;;;;;;;;;;5107505;28;20290;-79
2023/06/19 12:55:56;;;;;;;3.00;2.80;;;;;;;;;;5103426;28;20246;-79
2023/06/19 12:58:23;;;;;;;2.65;2.53;;;;;;;;;;5095967;28;20212;-79
2023/06/19 13:00:51;;;;;;;3.30;3.10;;;;;;;;;;5107557;28;20204;-80
2023/06/19 13:03:19;;;;;;;2.70;2.35;;;;;;;;;;5128905;28;20266;-82
2023/06/19 13:05:47;;;;;;;2.55;2.45;;;;;;;;;;5129021;28;20216;-80
2023/06/19 13:08:15;;;;;;;2.50;2.40;;;;;;;;;;5116491;28;20444;-80
2023/06/19 13:10:42;;;;;;;2.75;2.55;;;;;;;;;;5113210;28;20231;-82
2023/06/19 13:13:11;;;;;;;4.00;3.70;;;;;;;;;;5109055;28;20205;-80
2023/06/19 13:15:38;;;;;;;3.13;2.92;;;;;;;;;;5089212;28;20267;-80
2023/06/19 13:18:06;;;;;;;2.30;2.20;;;;;;;;;;5088288;28;20251;-79
2023/06/19 13:20:33;;;;;;;2.78;2.58;;;;;;;;;;5088855;28;20228;-81
2023/06/19 13:23:01;;;;;;;2.80;2.60;;;;;;;;;;5088637;28;20719;-79
2023/06/19 13:25:28;;;;;;;2.78;2.63;;;;;;;;;;5084894;28;20260;-80
2023/06/19 13:27:56;;;;;;;3.28;3.08;;;;;;;;;;5084536;28;20197;-80
2023/06/19 13:30:25;;;;;;;3.05;2.85;;;;;;;;;;5086930;28;20239;-81
2023/06/19 13:32:52;;;;;;;3.40;3.20;;;;;;;;;;5083016;28;20215;-80
2023/06/19 13:35:21;;;;;;;2.67;2.50;;;;;;;;;;5087083;28;20718;-80
2023/06/19 13:37:49;;;;;;;3.33;3.13;;;;;;;;;;5116811;28;20200;-81
2023/06/19 13:40:16;;;;;;;2.70;2.50;;;;;;;;;;5098718;28;20287;-80
2023/06/19 13:42:44;;;;;;;3.05;2.85;;;;;;;;;;5093642;28;20283;-82
2023/06/19 13:45:12;;;;;;;3.10;2.90;;;;;;;;;;5093514;28;20584;-79
2023/06/19 13:47:41;;;;;;;3.05;2.85;;;;;;;;;;5093952;28;20207;-80
2023/06/19 13:50:09;;;;;;;3.90;2.53;;;;;;;;;;5094548;28;20196;-79
2023/06/19 13:52:37;;;;;;;3.67;3.22;;;;;;;;;;5093493;28;20211;-79
2023/06/19 13:55:06;;;;;;;2.60;2.45;;;;;;;;;;5092563;28;20262;-82
2023/06/19 13:57:33;;;;;;;2.78;2.58;;;;;;;;;;5096808;28;20204;-79
2023/06/19 14:00:00;;;;;;;2.40;2.30;;;;;;;;;;5099712;28;20210;-81
2023/06/19 14:02:28;;;;;;;4.38;3.65;;;;;;;;;;5099641;28;20286;-79
2023/06/19 14:04:57;;;;;;;3.22;3.03;;;;;;;;;;5097905;28;20230;-80
2023/06/19 14:07:25;;;;;;;2.80;2.60;;;;;;;;;;5097037;28;20204;-79
2023/06/19 14:09:53;;;;;;;2.47;2.38;;;;;;;;;;5096316;28;20672;-79
2023/06/19 14:12:21;;;;;;;3.08;2.88;;;;;;;;;;5096773;28;20261;-79
2023/06/19 14:14:49;;;;;;;3.22;3.03;;;;;;;;;;5096249;28;20236;-79
2023/06/19 14:17:16;;;;;;;3.17;2.97;;;;;;;;;;5096517;28;20204;-79
2023/06/19 14:19:43;;;;;;;3.05;2.85;;;;;;;;;;5096567;28;20211;-79
2023/06/19 14:22:12;;;;;;;2.40;2.30;;;;;;;;;;5096749;28;20210;-82
2023/06/19 14:24:40;;;;;;;2.50;2.40;;;;;;;;;;5096149;28;20732;-78
2023/06/19 14:27:07;;;;;;;2.75;2.58;;;;;;;;;;5095792;28;20287;-79
2023/06/19 14:29:35;;;;;;;2.60;2.40;;;;;;;;;;5095641;28;20200;-78
2023/06/19 14:32:02;;;;;;;2.35;2.25;;;;;;;;;;5096199;28;20207;-79
2023/06/19 14:34:30;;;;;;;3.05;2.85;;;;;;;;;;5094861;28;20220;-79
2023/06/19 14:36:57;;;;;;;2.60;2.40;;;;;;;;;;5095930;28;20219;-79
2023/06/19 14:39:26;;;;;;;2.50;2.33;;;;;;;;;;5095809;28;20207;-79
2023/06/19 14:41:54;;;;;;;2.92;2.72;;;;;;;;;;5095692;28;20291;-79
2023/06/19 14:44:21;;;;;;;3.22;3.03;;;;;;;;;;5096521;28;20315;-80
2023/06/19 14:46:49;;;;;;;2.60;2.50;;;;;;;;;;5097612;28;20211;-80
2023/06/19 14:49:16;;;;;;;3.05;2.85;;;;;;;;;;5095950;28;20202;-80